sensor_id;sensor_type;location;lat;lon;timestamp;P1;durP1;ratioP1;P2;durP2;ratioP2
21661;SDS011;10992;48.170;8.596;2023-03-21T00:01:50;10.70;;;7.22;;
21661;SDS011;10992;48.170;8.596;2023-03-21T00:04:19;9.00;;;6.40;;
21661;SDS011;10992;48.170;8.596;2023-03-21T00:06:47;10.27;;;6.55;;
21661;SDS011;10992;48.170;8.596;2023-03-21T00:09:17;11.45;;;6.45;;
21661;SDS011;10992;48.170;8.596;2023-03-21T00:11:47;6.95;;;6.25;;
21661;SDS011;10992;48.170;8.596;2023-03-21T00:14:18;9.85;;;6.30;;
21661;SDS011;10992;48.170;8.596;2023-03-21T00:16:46;8.38;;;5.97;;
21661;SDS011;10992;48.170;8.596;2023-03-21T00:19:17;7.60;;;5.75;;
21661;SDS011;10992;48.170;8.596;2023-03-21T00:21:46;8.05;;;6.32;;
21661;SDS011;10992;48.170;8.596;2023-03-21T00:24:37;7.35;;;5.25;;
21661;SDS011;10992;48.170;8.596;2023-03-21T00:27:07;6.90;;;5.43;;
21661;SDS011;10992;48.170;8.596;2023-03-21T00:29:54;6.72;;;5.53;;
21661;SDS011;10992;48.170;8.596;2023-03-21T00:32:21;8.82;;;6.40;;
21661;SDS011;10992;48.170;8.596;2023-03-21T00:34:48;9.45;;;6.00;;
21661;SDS011;10992;48.170;8.596;2023-03-21T00:37:36;10.55;;;7.07;;
21661;SDS011;10992;48.170;8.596;2023-03-21T00:40:03;8.35;;;5.90;;
21661;SDS011;10992;48.170;8.596;2023-03-21T00:42:50;9.95;;;6.93;;
21661;SDS011;10992;48.170;8.596;2023-03-21T00:45:17;8.63;;;6.18;;
21661;SDS011;10992;48.170;8.596;2023-03-21T00:47:47;8.20;;;7.05;;
21661;SDS011;10992;48.170;8.596;2023-03-21T00:50:15;8.38;;;7.13;;
21661;SDS011;10992;48.170;8.596;2023-03-21T00:52:43;9.18;;;6.65;;
21661;SDS011;10992;48.170;8.596;2023-03-21T00:55:15;8.52;;;6.30;;
21661;SDS011;10992;48.170;8.596;2023-03-21T00:57:43;9.93;;;6.53;;
21661;SDS011;10992;48.170;8.596;2023-03-21T01:00:18;8.57;;;6.47;;
21661;SDS011;10992;48.170;8.596;2023-03-21T01:02:45;8.10;;;6.68;;
21661;SDS011;10992;48.170;8.596;2023-03-21T01:05:41;7.93;;;6.75;;
21661;SDS011;10992;48.170;8.596;2023-03-21T01:08:31;7.85;;;6.72;;
21661;SDS011;10992;48.170;8.596;2023-03-21T01:11:17;9.15;;;6.07;;
21661;SDS011;10992;48.170;8.596;2023-03-21T01:13:46;6.65;;;5.70;;
21661;SDS011;10992;48.170;8.596;2023-03-21T01:16:22;8.73;;;5.93;;
21661;SDS011;10992;48.170;8.596;2023-03-21T01:18:49;6.97;;;5.38;;
21661;SDS011;10992;48.170;8.596;2023-03-21T01:21:17;9.20;;;6.22;;
21661;SDS011;10992;48.170;8.596;2023-03-21T01:23:44;9.13;;;6.57;;
21661;SDS011;10992;48.170;8.596;2023-03-21T01:26:11;9.20;;;6.32;;
21661;SDS011;10992;48.170;8.596;2023-03-21T01:28:39;8.55;;;6.57;;
21661;SDS011;10992;48.170;8.596;2023-03-21T01:31:09;11.13;;;6.95;;
21661;SDS011;10992;48.170;8.596;2023-03-21T01:33:38;7.70;;;6.28;;
21661;SDS011;10992;48.170;8.596;2023-03-21T01:36:06;6.32;;;5.40;;
21661;SDS011;10992;48.170;8.596;2023-03-21T01:38:40;5.82;;;4.93;;
21661;SDS011;10992;48.170;8.596;2023-03-21T01:41:13;6.43;;;5.47;;
21661;SDS011;10992;48.170;8.596;2023-03-21T01:44:14;5.88;;;4.65;;
21661;SDS011;10992;48.170;8.596;2023-03-21T01:46:44;6.75;;;5.32;;
21661;SDS011;10992;48.170;8.596;2023-03-21T01:49:46;6.80;;;4.75;;
21661;SDS011;10992;48.170;8.596;2023-03-21T01:52:28;5.85;;;5.13;;
21661;SDS011;10992;48.170;8.596;2023-03-21T01:55:10;8.85;;;5.13;;
21661;SDS011;10992;48.170;8.596;2023-03-21T01:57:45;6.70;;;5.05;;
21661;SDS011;10992;48.170;8.596;2023-03-21T02:00:35;5.25;;;4.47;;
21661;SDS011;10992;48.170;8.596;2023-03-21T02:03:17;5.13;;;4.63;;
21661;SDS011;10992;48.170;8.596;2023-03-21T02:06:12;5.72;;;4.65;;
21661;SDS011;10992;48.170;8.596;2023-03-21T02:08:53;7.35;;;4.95;;
21661;SDS011;10992;48.170;8.596;2023-03-21T02:11:20;7.35;;;5.20;;
21661;SDS011;10992;48.170;8.596;2023-03-21T02:13:49;6.63;;;5.25;;
21661;SDS011;10992;48.170;8.596;2023-03-21T02:16:28;7.22;;;4.82;;
21661;SDS011;10992;48.170;8.596;2023-03-21T02:27:28;4.93;;;4.32;;
21661;SDS011;10992;48.170;8.596;2023-03-21T02:36:24;5.38;;;3.97;;
21661;SDS011;10992;48.170;8.596;2023-03-21T02:39:13;5.30;;;4.03;;
21661;SDS011;10992;48.170;8.596;2023-03-21T02:41:54;6.53;;;4.00;;
21661;SDS011;10992;48.170;8.596;2023-03-21T02:44:46;4.20;;;3.75;;
21661;SDS011;10992;48.170;8.596;2023-03-21T02:47:35;5.68;;;3.67;;
21661;SDS011;10992;48.170;8.596;2023-03-21T02:50:34;4.38;;;3.38;;
21661;SDS011;10992;48.170;8.596;2023-03-21T02:53:08;4.40;;;3.85;;
21661;SDS011;10992;48.170;8.596;2023-03-21T02:55:39;5.50;;;4.05;;
21661;SDS011;10992;48.170;8.596;2023-03-21T02:58:10;3.15;;;2.85;;
21661;SDS011;10992;48.170;8.596;2023-03-21T03:00:48;3.88;;;3.38;;
21661;SDS011;10992;48.170;8.596;2023-03-21T03:03:27;4.30;;;3.42;;
21661;SDS011;10992;48.170;8.596;2023-03-21T03:06:03;4.85;;;3.50;;
21661;SDS011;10992;48.170;8.596;2023-03-21T03:09:29;4.50;;;3.33;;
21661;SDS011;10992;48.170;8.596;2023-03-21T03:11:35;4.00;;;3.60;;
21661;SDS011;10992;48.170;8.596;2023-03-21T03:14:09;4.68;;;3.90;;
21661;SDS011;10992;48.170;8.596;2023-03-21T03:25:35;4.90;;;3.28;;
21661;SDS011;10992;48.170;8.596;2023-03-21T03:28:13;3.55;;;2.85;;
21661;SDS011;10992;48.170;8.596;2023-03-21T03:30:43;3.65;;;2.90;;
21661;SDS011;10992;48.170;8.596;2023-03-21T03:33:32;3.33;;;3.00;;
21661;SDS011;10992;48.170;8.596;2023-03-21T03:36:01;4.60;;;3.25;;
21661;SDS011;10992;48.170;8.596;2023-03-21T03:38:34;4.55;;;3.30;;
21661;SDS011;10992;48.170;8.596;2023-03-21T03:41:07;3.75;;;3.22;;
21661;SDS011;10992;48.170;8.596;2023-03-21T03:43:51;4.47;;;3.70;;
21661;SDS011;10992;48.170;8.596;2023-03-21T03:49:08;5.57;;;3.58;;
21661;SDS011;10992;48.170;8.596;2023-03-21T03:54:48;6.50;;;4.53;;
21661;SDS011;10992;48.170;8.596;2023-03-21T03:57:19;5.18;;;3.67;;
21661;SDS011;10992;48.170;8.596;2023-03-21T03:59:47;4.35;;;3.95;;
21661;SDS011;10992;48.170;8.596;2023-03-21T04:02:30;5.25;;;3.70;;
21661;SDS011;10992;48.170;8.596;2023-03-21T04:05:00;5.72;;;3.92;;
21661;SDS011;10992;48.170;8.596;2023-03-21T04:07:27;5.30;;;3.42;;
21661;SDS011;10992;48.170;8.596;2023-03-21T04:09:57;4.32;;;3.50;;
21661;SDS011;10992;48.170;8.596;2023-03-21T04:12:26;4.18;;;3.38;;
21661;SDS011;10992;48.170;8.596;2023-03-21T04:15:07;5.90;;;4.18;;
21661;SDS011;10992;48.170;8.596;2023-03-21T04:17:40;5.18;;;4.03;;
21661;SDS011;10992;48.170;8.596;2023-03-21T04:20:08;4.35;;;3.90;;
21661;SDS011;10992;48.170;8.596;2023-03-21T04:22:46;4.72;;;3.90;;
21661;SDS011;10992;48.170;8.596;2023-03-21T04:25:14;4.95;;;3.88;;
21661;SDS011;10992;48.170;8.596;2023-03-21T04:27:58;5.22;;;3.92;;
21661;SDS011;10992;48.170;8.596;2023-03-21T04:30:34;7.50;;;4.18;;
21661;SDS011;10992;48.170;8.596;2023-03-21T04:33:10;6.25;;;4.47;;
21661;SDS011;10992;48.170;8.596;2023-03-21T04:35:41;6.20;;;4.82;;
21661;SDS011;10992;48.170;8.596;2023-03-21T04:38:08;6.18;;;4.10;;
21661;SDS011;10992;48.170;8.596;2023-03-21T04:40:35;5.15;;;4.30;;
21661;SDS011;10992;48.170;8.596;2023-03-21T04:43:03;5.00;;;3.92;;
21661;SDS011;10992;48.170;8.596;2023-03-21T04:45:30;5.03;;;4.53;;
21661;SDS011;10992;48.170;8.596;2023-03-21T04:47:58;7.22;;;4.07;;
21661;SDS011;10992;48.170;8.596;2023-03-21T04:50:25;7.35;;;4.40;;
21661;SDS011;10992;48.170;8.596;2023-03-21T04:52:52;6.30;;;4.90;;
21661;SDS011;10992;48.170;8.596;2023-03-21T04:55:19;6.15;;;4.95;;
21661;SDS011;10992;48.170;8.596;2023-03-21T04:57:47;5.20;;;4.40;;
21661;SDS011;10992;48.170;8.596;2023-03-21T05:00:14;7.75;;;4.85;;
21661;SDS011;10992;48.170;8.596;2023-03-21T05:02:41;8.48;;;4.82;;
21661;SDS011;10992;48.170;8.596;2023-03-21T05:05:08;5.65;;;4.65;;
21661;SDS011;10992;48.170;8.596;2023-03-21T05:07:38;4.97;;;4.28;;
21661;SDS011;10992;48.170;8.596;2023-03-21T05:10:07;9.43;;;5.20;;
21661;SDS011;10992;48.170;8.596;2023-03-21T05:12:37;6.75;;;4.57;;
21661;SDS011;10992;48.170;8.596;2023-03-21T05:15:04;4.65;;;4.22;;
21661;SDS011;10992;48.170;8.596;2023-03-21T05:17:32;7.53;;;5.35;;
21661;SDS011;10992;48.170;8.596;2023-03-21T05:20:00;6.60;;;5.30;;
21661;SDS011;10992;48.170;8.596;2023-03-21T05:22:27;5.80;;;5.20;;
21661;SDS011;10992;48.170;8.596;2023-03-21T05:24:56;6.85;;;5.03;;
21661;SDS011;10992;48.170;8.596;2023-03-21T05:27:35;7.78;;;4.82;;
21661;SDS011;10992;48.170;8.596;2023-03-21T05:30:10;6.40;;;5.45;;
21661;SDS011;10992;48.170;8.596;2023-03-21T05:32:41;8.18;;;5.35;;
21661;SDS011;10992;48.170;8.596;2023-03-21T05:35:10;5.82;;;4.65;;
21661;SDS011;10992;48.170;8.596;2023-03-21T05:37:37;6.15;;;4.53;;
21661;SDS011;10992;48.170;8.596;2023-03-21T05:40:05;6.53;;;4.63;;
21661;SDS011;10992;48.170;8.596;2023-03-21T05:42:36;5.97;;;4.88;;
21661;SDS011;10992;48.170;8.596;2023-03-21T05:45:13;6.63;;;5.35;;
21661;SDS011;10992;48.170;8.596;2023-03-21T05:47:41;9.95;;;5.95;;
21661;SDS011;10992;48.170;8.596;2023-03-21T05:50:10;9.05;;;6.18;;
21661;SDS011;10992;48.170;8.596;2023-03-21T05:52:42;10.98;;;6.72;;
21661;SDS011;10992;48.170;8.596;2023-03-21T05:55:12;11.02;;;7.68;;
21661;SDS011;10992;48.170;8.596;2023-03-21T05:57:40;10.75;;;7.20;;
21661;SDS011;10992;48.170;8.596;2023-03-21T06:00:15;10.82;;;6.45;;
21661;SDS011;10992;48.170;8.596;2023-03-21T06:02:53;6.82;;;5.35;;
21661;SDS011;10992;48.170;8.596;2023-03-21T06:05:37;7.60;;;5.65;;
21661;SDS011;10992;48.170;8.596;2023-03-21T06:08:11;9.10;;;6.50;;
21661;SDS011;10992;48.170;8.596;2023-03-21T06:10:38;9.10;;;5.93;;
21661;SDS011;10992;48.170;8.596;2023-03-21T06:13:06;9.73;;;6.22;;
21661;SDS011;10992;48.170;8.596;2023-03-21T06:15:33;6.25;;;4.50;;
21661;SDS011;10992;48.170;8.596;2023-03-21T06:18:07;6.05;;;4.55;;
21661;SDS011;10992;48.170;8.596;2023-03-21T06:20:36;7.78;;;3.70;;
21661;SDS011;10992;48.170;8.596;2023-03-21T06:23:08;6.35;;;2.72;;
21661;SDS011;10992;48.170;8.596;2023-03-21T06:25:36;4.65;;;2.90;;
21661;SDS011;10992;48.170;8.596;2023-03-21T06:28:04;7.05;;;4.50;;
21661;SDS011;10992;48.170;8.596;2023-03-21T06:30:33;14.95;;;4.05;;
21661;SDS011;10992;48.170;8.596;2023-03-21T06:33:10;5.82;;;2.78;;
21661;SDS011;10992;48.170;8.596;2023-03-21T06:35:37;4.75;;;2.10;;
21661;SDS011;10992;48.170;8.596;2023-03-21T06:38:05;5.35;;;2.58;;
21661;SDS011;10992;48.170;8.596;2023-03-21T06:40:33;3.50;;;1.75;;
21661;SDS011;10992;48.170;8.596;2023-03-21T06:43:00;2.85;;;2.25;;
21661;SDS011;10992;48.170;8.596;2023-03-21T06:45:28;4.15;;;1.92;;
21661;SDS011;10992;48.170;8.596;2023-03-21T06:47:55;5.50;;;2.78;;
21661;SDS011;10992;48.170;8.596;2023-03-21T06:50:33;2.97;;;1.90;;
21661;SDS011;10992;48.170;8.596;2023-03-21T06:53:00;2.80;;;2.20;;
21661;SDS011;10992;48.170;8.596;2023-03-21T06:55:34;3.95;;;1.80;;
21661;SDS011;10992;48.170;8.596;2023-03-21T06:58:02;4.05;;;2.15;;
21661;SDS011;10992;48.170;8.596;2023-03-21T07:00:29;4.10;;;1.95;;
21661;SDS011;10992;48.170;8.596;2023-03-21T07:02:56;2.83;;;2.10;;
21661;SDS011;10992;48.170;8.596;2023-03-21T07:05:24;5.40;;;2.15;;
21661;SDS011;10992;48.170;8.596;2023-03-21T07:07:51;2.92;;;1.90;;
21661;SDS011;10992;48.170;8.596;2023-03-21T07:10:18;2.58;;;2.03;;
21661;SDS011;10992;48.170;8.596;2023-03-21T07:12:52;3.90;;;1.98;;
21661;SDS011;10992;48.170;8.596;2023-03-21T07:15:22;2.95;;;1.90;;
21661;SDS011;10992;48.170;8.596;2023-03-21T07:17:50;3.95;;;1.90;;
21661;SDS011;10992;48.170;8.596;2023-03-21T07:20:17;4.22;;;1.92;;
21661;SDS011;10992;48.170;8.596;2023-03-21T07:22:44;2.97;;;2.17;;
21661;SDS011;10992;48.170;8.596;2023-03-21T07:25:12;3.17;;;2.15;;
21661;SDS011;10992;48.170;8.596;2023-03-21T07:27:39;3.85;;;2.00;;
21661;SDS011;10992;48.170;8.596;2023-03-21T07:30:08;3.58;;;2.20;;
21661;SDS011;10992;48.170;8.596;2023-03-21T07:32:36;3.78;;;2.10;;
21661;SDS011;10992;48.170;8.596;2023-03-21T07:35:04;3.05;;;2.17;;
21661;SDS011;10992;48.170;8.596;2023-03-21T07:37:40;2.80;;;2.10;;
21661;SDS011;10992;48.170;8.596;2023-03-21T07:40:07;3.50;;;2.30;;
21661;SDS011;10992;48.170;8.596;2023-03-21T07:42:38;2.67;;;1.98;;
21661;SDS011;10992;48.170;8.596;2023-03-21T07:45:09;3.05;;;1.88;;
21661;SDS011;10992;48.170;8.596;2023-03-21T07:47:36;4.57;;;1.85;;
21661;SDS011;10992;48.170;8.596;2023-03-21T07:50:03;2.70;;;1.70;;
21661;SDS011;10992;48.170;8.596;2023-03-21T07:52:31;3.67;;;1.92;;
21661;SDS011;10992;48.170;8.596;2023-03-21T07:54:58;2.50;;;1.75;;
21661;SDS011;10992;48.170;8.596;2023-03-21T07:57:25;2.72;;;1.95;;
21661;SDS011;10992;48.170;8.596;2023-03-21T07:59:52;4.53;;;1.70;;
21661;SDS011;10992;48.170;8.596;2023-03-21T08:02:19;2.25;;;1.60;;
21661;SDS011;10992;48.170;8.596;2023-03-21T08:04:46;2.58;;;2.08;;
21661;SDS011;10992;48.170;8.596;2023-03-21T08:07:13;3.03;;;1.60;;
21661;SDS011;10992;48.170;8.596;2023-03-21T08:09:39;1.95;;;1.77;;
21661;SDS011;10992;48.170;8.596;2023-03-21T08:12:09;2.33;;;1.52;;
21661;SDS011;10992;48.170;8.596;2023-03-21T08:14:36;5.07;;;1.65;;
21661;SDS011;10992;48.170;8.596;2023-03-21T08:17:03;4.07;;;2.10;;
21661;SDS011;10992;48.170;8.596;2023-03-21T08:19:31;2.80;;;2.10;;
21661;SDS011;10992;48.170;8.596;2023-03-21T08:21:58;2.60;;;2.40;;
21661;SDS011;10992;48.170;8.596;2023-03-21T08:24:26;3.65;;;2.45;;
21661;SDS011;10992;48.170;8.596;2023-03-21T08:26:54;4.55;;;3.40;;
21661;SDS011;10992;48.170;8.596;2023-03-21T08:29:21;3.63;;;2.90;;
21661;SDS011;10992;48.170;8.596;2023-03-21T08:31:49;4.28;;;3.33;;
21661;SDS011;10992;48.170;8.596;2023-03-21T08:34:16;5.38;;;3.25;;
21661;SDS011;10992;48.170;8.596;2023-03-21T08:36:44;5.18;;;4.00;;
21661;SDS011;10992;48.170;8.596;2023-03-21T08:39:12;3.78;;;3.13;;
21661;SDS011;10992;48.170;8.596;2023-03-21T08:41:39;7.63;;;4.15;;
21661;SDS011;10992;48.170;8.596;2023-03-21T08:44:09;5.50;;;4.28;;
21661;SDS011;10992;48.170;8.596;2023-03-21T08:46:36;5.50;;;4.10;;
21661;SDS011;10992;48.170;8.596;2023-03-21T08:49:03;5.70;;;4.65;;
21661;SDS011;10992;48.170;8.596;2023-03-21T08:51:30;4.85;;;3.70;;
21661;SDS011;10992;48.170;8.596;2023-03-21T08:53:58;5.00;;;4.05;;
21661;SDS011;10992;48.170;8.596;2023-03-21T08:56:26;7.63;;;4.70;;
21661;SDS011;10992;48.170;8.596;2023-03-21T08:58:53;5.97;;;4.28;;
21661;SDS011;10992;48.170;8.596;2023-03-21T09:01:20;7.43;;;4.07;;
21661;SDS011;10992;48.170;8.596;2023-03-21T09:03:47;6.65;;;4.55;;
21661;SDS011;10992;48.170;8.596;2023-03-21T09:06:14;7.88;;;4.93;;
21661;SDS011;10992;48.170;8.596;2023-03-21T09:08:42;6.32;;;4.82;;
21661;SDS011;10992;48.170;8.596;2023-03-21T09:11:11;4.90;;;3.88;;
21661;SDS011;10992;48.170;8.596;2023-03-21T09:13:39;5.47;;;4.38;;
21661;SDS011;10992;48.170;8.596;2023-03-21T09:16:06;7.35;;;4.22;;
21661;SDS011;10992;48.170;8.596;2023-03-21T09:18:33;5.50;;;4.55;;
21661;SDS011;10992;48.170;8.596;2023-03-21T09:21:14;5.32;;;4.07;;
21661;SDS011;10992;48.170;8.596;2023-03-21T09:23:43;4.72;;;3.65;;
21661;SDS011;10992;48.170;8.596;2023-03-21T09:26:12;4.97;;;4.05;;
21661;SDS011;10992;48.170;8.596;2023-03-21T09:28:39;4.55;;;3.65;;
21661;SDS011;10992;48.170;8.596;2023-03-21T09:31:08;4.30;;;3.40;;
21661;SDS011;10992;48.170;8.596;2023-03-21T09:33:37;5.40;;;3.53;;
21661;SDS011;10992;48.170;8.596;2023-03-21T09:36:07;4.72;;;3.60;;
21661;SDS011;10992;48.170;8.596;2023-03-21T09:38:40;4.25;;;3.38;;
21661;SDS011;10992;48.170;8.596;2023-03-21T09:41:25;4.55;;;3.78;;
21661;SDS011;10992;48.170;8.596;2023-03-21T09:49:18;7.03;;;3.42;;
21661;SDS011;10992;48.170;8.596;2023-03-21T09:51:51;5.40;;;3.30;;
21661;SDS011;10992;48.170;8.596;2023-03-21T09:54:22;4.55;;;3.92;;
21661;SDS011;10992;48.170;8.596;2023-03-21T09:56:54;5.00;;;3.80;;
21661;SDS011;10992;48.170;8.596;2023-03-21T09:59:36;4.90;;;3.17;;
21661;SDS011;10992;48.170;8.596;2023-03-21T10:02:15;3.35;;;2.78;;
21661;SDS011;10992;48.170;8.596;2023-03-21T10:05:00;4.43;;;3.67;;
21661;SDS011;10992;48.170;8.596;2023-03-21T10:07:37;4.53;;;3.65;;
21661;SDS011;10992;48.170;8.596;2023-03-21T10:10:14;3.63;;;3.22;;
21661;SDS011;10992;48.170;8.596;2023-03-21T10:12:45;5.28;;;2.97;;
21661;SDS011;10992;48.170;8.596;2023-03-21T10:15:17;4.72;;;3.58;;
21661;SDS011;10992;48.170;8.596;2023-03-21T10:17:48;4.28;;;3.70;;
21661;SDS011;10992;48.170;8.596;2023-03-21T10:20:34;4.05;;;3.55;;
21661;SDS011;10992;48.170;8.596;2023-03-21T10:23:04;4.22;;;3.10;;
21661;SDS011;10992;48.170;8.596;2023-03-21T10:25:34;5.15;;;3.58;;
21661;SDS011;10992;48.170;8.596;2023-03-21T10:28:16;3.90;;;3.50;;
21661;SDS011;10992;48.170;8.596;2023-03-21T10:30:58;3.90;;;3.30;;
21661;SDS011;10992;48.170;8.596;2023-03-21T10:33:33;4.43;;;2.97;;
21661;SDS011;10992;48.170;8.596;2023-03-21T10:36:07;3.55;;;3.13;;
21661;SDS011;10992;48.170;8.596;2023-03-21T10:38:42;3.30;;;2.85;;
21661;SDS011;10992;48.170;8.596;2023-03-21T10:41:14;4.50;;;2.95;;
21661;SDS011;10992;48.170;8.596;2023-03-21T10:43:42;4.38;;;3.10;;
21661;SDS011;10992;48.170;8.596;2023-03-21T10:46:12;5.25;;;3.30;;
21661;SDS011;10992;48.170;8.596;2023-03-21T10:48:43;4.00;;;3.22;;
21661;SDS011;10992;48.170;8.596;2023-03-21T10:51:14;3.92;;;3.10;;
21661;SDS011;10992;48.170;8.596;2023-03-21T10:53:45;4.28;;;3.00;;
21661;SDS011;10992;48.170;8.596;2023-03-21T10:56:17;3.42;;;3.13;;
21661;SDS011;10992;48.170;8.596;2023-03-21T10:58:48;4.88;;;3.30;;
21661;SDS011;10992;48.170;8.596;2023-03-21T11:01:25;6.35;;;3.38;;
21661;SDS011;10992;48.170;8.596;2023-03-21T11:04:13;3.80;;;3.22;;
21661;SDS011;10992;48.170;8.596;2023-03-21T11:09:21;4.60;;;3.50;;
21661;SDS011;10992;48.170;8.596;2023-03-21T11:19:59;3.30;;;2.85;;
21661;SDS011;10992;48.170;8.596;2023-03-21T11:22:40;4.90;;;3.00;;
21661;SDS011;10992;48.170;8.596;2023-03-21T11:25:14;3.47;;;2.90;;
21661;SDS011;10992;48.170;8.596;2023-03-21T11:28:15;3.53;;;2.63;;
21661;SDS011;10992;48.170;8.596;2023-03-21T11:30:48;5.80;;;2.33;;
21661;SDS011;10992;48.170;8.596;2023-03-21T11:33:26;3.10;;;2.47;;
21661;SDS011;10992;48.170;8.596;2023-03-21T11:35:59;3.97;;;2.30;;
21661;SDS011;10992;48.170;8.596;2023-03-21T11:38:32;4.05;;;2.72;;
21661;SDS011;10992;48.170;8.596;2023-03-21T11:41:03;3.33;;;2.10;;
21661;SDS011;10992;48.170;8.596;2023-03-21T11:43:35;2.05;;;1.85;;
21661;SDS011;10992;48.170;8.596;2023-03-21T11:46:08;3.33;;;2.13;;
21661;SDS011;10992;48.170;8.596;2023-03-21T11:48:40;3.15;;;2.13;;
21661;SDS011;10992;48.170;8.596;2023-03-21T11:51:23;2.35;;;1.85;;
21661;SDS011;10992;48.170;8.596;2023-03-21T11:54:06;3.00;;;1.95;;
21661;SDS011;10992;48.170;8.596;2023-03-21T11:56:49;2.38;;;1.70;;
21661;SDS011;10992;48.170;8.596;2023-03-21T12:07:26;2.28;;;1.40;;
21661;SDS011;10992;48.170;8.596;2023-03-21T12:10:10;2.38;;;1.48;;
21661;SDS011;10992;48.170;8.596;2023-03-21T12:15:30;2.20;;;1.60;;
21661;SDS011;10992;48.170;8.596;2023-03-21T12:24:04;2.78;;;1.60;;
21661;SDS011;10992;48.170;8.596;2023-03-21T12:29:45;1.95;;;1.58;;
21661;SDS011;10992;48.170;8.596;2023-03-21T12:35:30;1.80;;;1.70;;
21661;SDS011;10992;48.170;8.596;2023-03-21T12:38:25;2.22;;;1.80;;
21661;SDS011;10992;48.170;8.596;2023-03-21T12:43:45;3.38;;;2.00;;
21661;SDS011;10992;48.170;8.596;2023-03-21T12:48:46;5.43;;;2.20;;
21661;SDS011;10992;48.170;8.596;2023-03-21T12:51:22;2.10;;;1.90;;
21661;SDS011;10992;48.170;8.596;2023-03-21T12:53:56;3.10;;;2.40;;
21661;SDS011;10992;48.170;8.596;2023-03-21T12:56:29;2.85;;;2.30;;
21661;SDS011;10992;48.170;8.596;2023-03-21T12:59:19;3.40;;;1.90;;
21661;SDS011;10992;48.170;8.596;2023-03-21T13:01:58;3.45;;;2.03;;
21661;SDS011;10992;48.170;8.596;2023-03-21T13:04:39;3.83;;;2.33;;
21661;SDS011;10992;48.170;8.596;2023-03-21T13:07:12;2.40;;;1.80;;
21661;SDS011;10992;48.170;8.596;2023-03-21T13:09:43;3.15;;;1.88;;
21661;SDS011;10992;48.170;8.596;2023-03-21T13:21:03;3.10;;;2.20;;
21661;SDS011;10992;48.170;8.596;2023-03-21T13:23:54;3.17;;;2.08;;
21661;SDS011;10992;48.170;8.596;2023-03-21T13:26:36;2.53;;;2.00;;
21661;SDS011;10992;48.170;8.596;2023-03-21T13:29:19;4.45;;;2.40;;
21661;SDS011;10992;48.170;8.596;2023-03-21T13:31:50;4.03;;;2.45;;
21661;SDS011;10992;48.170;8.596;2023-03-21T13:34:22;3.80;;;2.25;;
21661;SDS011;10992;48.170;8.596;2023-03-21T13:36:51;4.40;;;2.40;;
21661;SDS011;10992;48.170;8.596;2023-03-21T13:39:19;2.35;;;2.05;;
21661;SDS011;10992;48.170;8.596;2023-03-21T13:41:50;2.75;;;2.00;;
21661;SDS011;10992;48.170;8.596;2023-03-21T13:46:59;8.48;;;5.10;;
21661;SDS011;10992;48.170;8.596;2023-03-21T13:49:32;4.10;;;2.67;;
21661;SDS011;10992;48.170;8.596;2023-03-21T13:57:04;4.03;;;2.53;;
21661;SDS011;10992;48.170;8.596;2023-03-21T13:59:36;5.93;;;2.83;;
21661;SDS011;10992;48.170;8.596;2023-03-21T14:05:23;3.55;;;2.90;;
21661;SDS011;10992;48.170;8.596;2023-03-21T14:07:55;3.97;;;2.90;;
21661;SDS011;10992;48.170;8.596;2023-03-21T14:10:41;3.30;;;2.55;;
21661;SDS011;10992;48.170;8.596;2023-03-21T14:13:11;2.90;;;2.55;;
21661;SDS011;10992;48.170;8.596;2023-03-21T14:18:24;3.70;;;2.05;;
21661;SDS011;10992;48.170;8.596;2023-03-21T14:21:18;3.42;;;2.20;;
21661;SDS011;10992;48.170;8.596;2023-03-21T14:24:03;3.83;;;2.13;;
21661;SDS011;10992;48.170;8.596;2023-03-21T14:26:35;3.55;;;2.30;;
21661;SDS011;10992;48.170;8.596;2023-03-21T14:29:06;3.30;;;1.67;;
21661;SDS011;10992;48.170;8.596;2023-03-21T14:31:50;2.10;;;1.60;;
21661;SDS011;10992;48.170;8.596;2023-03-21T14:34:18;3.38;;;1.50;;
21661;SDS011;10992;48.170;8.596;2023-03-21T14:36:47;2.35;;;1.52;;
21661;SDS011;10992;48.170;8.596;2023-03-21T14:39:30;2.60;;;1.27;;
21661;SDS011;10992;48.170;8.596;2023-03-21T14:42:03;2.92;;;1.33;;
21661;SDS011;10992;48.170;8.596;2023-03-21T14:44:33;2.25;;;0.90;;
21661;SDS011;10992;48.170;8.596;2023-03-21T14:47:20;2.00;;;0.80;;
21661;SDS011;10992;48.170;8.596;2023-03-21T14:49:49;2.08;;;0.90;;
21661;SDS011;10992;48.170;8.596;2023-03-21T14:52:29;1.27;;;0.80;;
21661;SDS011;10992;48.170;8.596;2023-03-21T14:55:02;0.90;;;0.60;;
21661;SDS011;10992;48.170;8.596;2023-03-21T14:57:38;0.90;;;0.70;;
21661;SDS011;10992;48.170;8.596;2023-03-21T15:00:06;2.28;;;1.00;;
21661;SDS011;10992;48.170;8.596;2023-03-21T15:02:40;2.28;;;0.60;;
21661;SDS011;10992;48.170;8.596;2023-03-21T15:05:15;1.10;;;0.63;;
21661;SDS011;10992;48.170;8.596;2023-03-21T15:07:56;5.35;;;1.00;;
21661;SDS011;10992;48.170;8.596;2023-03-21T15:10:26;3.33;;;0.70;;
21661;SDS011;10992;48.170;8.596;2023-03-21T15:12:57;1.77;;;0.77;;
21661;SDS011;10992;48.170;8.596;2023-03-21T15:15:27;1.23;;;0.70;;
21661;SDS011;10992;48.170;8.596;2023-03-21T15:17:55;3.88;;;0.90;;
21661;SDS011;10992;48.170;8.596;2023-03-21T15:20:28;1.30;;;0.68;;
21661;SDS011;10992;48.170;8.596;2023-03-21T15:23:02;2.20;;;0.70;;
21661;SDS011;10992;48.170;8.596;2023-03-21T15:25:37;0.90;;;0.50;;
21661;SDS011;10992;48.170;8.596;2023-03-21T15:28:05;0.68;;;0.50;;
21661;SDS011;10992;48.170;8.596;2023-03-21T15:30:32;0.50;;;0.50;;
21661;SDS011;10992;48.170;8.596;2023-03-21T15:33:07;1.83;;;0.50;;
21661;SDS011;10992;48.170;8.596;2023-03-21T15:35:39;1.63;;;0.70;;
21661;SDS011;10992;48.170;8.596;2023-03-21T15:41:12;2.65;;;0.60;;
21661;SDS011;10992;48.170;8.596;2023-03-21T15:43:43;1.10;;;0.60;;
21661;SDS011;10992;48.170;8.596;2023-03-21T15:46:14;1.15;;;0.75;;
21661;SDS011;10992;48.170;8.596;2023-03-21T15:48:43;3.20;;;2.50;;
21661;SDS011;10992;48.170;8.596;2023-03-21T15:51:13;2.40;;;1.45;;
21661;SDS011;10992;48.170;8.596;2023-03-21T15:53:47;1.15;;;0.80;;
21661;SDS011;10992;48.170;8.596;2023-03-21T15:56:16;1.30;;;0.80;;
21661;SDS011;10992;48.170;8.596;2023-03-21T15:58:47;2.63;;;0.50;;
21661;SDS011;10992;48.170;8.596;2023-03-21T16:01:19;1.63;;;0.63;;
21661;SDS011;10992;48.170;8.596;2023-03-21T16:03:48;2.47;;;0.65;;
21661;SDS011;10992;48.170;8.596;2023-03-21T16:06:22;1.75;;;0.75;;
21661;SDS011;10992;48.170;8.596;2023-03-21T16:11:39;1.67;;;0.70;;
21661;SDS011;10992;48.170;8.596;2023-03-21T16:14:08;3.42;;;0.77;;
21661;SDS011;10992;48.170;8.596;2023-03-21T16:16:35;0.80;;;0.68;;
21661;SDS011;10992;48.170;8.596;2023-03-21T16:19:04;1.38;;;0.70;;
21661;SDS011;10992;48.170;8.596;2023-03-21T16:21:32;0.80;;;0.70;;
21661;SDS011;10992;48.170;8.596;2023-03-21T16:24:00;1.38;;;0.60;;
21661;SDS011;10992;48.170;8.596;2023-03-21T16:26:28;0.95;;;0.50;;
21661;SDS011;10992;48.170;8.596;2023-03-21T16:28:58;2.28;;;0.85;;
21661;SDS011;10992;48.170;8.596;2023-03-21T16:31:32;1.73;;;0.80;;
21661;SDS011;10992;48.170;8.596;2023-03-21T16:34:01;0.80;;;0.60;;
21661;SDS011;10992;48.170;8.596;2023-03-21T16:36:36;2.35;;;0.70;;
21661;SDS011;10992;48.170;8.596;2023-03-21T16:39:10;1.60;;;0.63;;
21661;SDS011;10992;48.170;8.596;2023-03-21T16:41:50;0.55;;;0.30;;
21661;SDS011;10992;48.170;8.596;2023-03-21T16:44:18;1.35;;;0.60;;
21661;SDS011;10992;48.170;8.596;2023-03-21T16:46:49;0.55;;;0.50;;
21661;SDS011;10992;48.170;8.596;2023-03-21T16:49:18;1.85;;;0.63;;
21661;SDS011;10992;48.170;8.596;2023-03-21T16:51:49;0.50;;;0.40;;
21661;SDS011;10992;48.170;8.596;2023-03-21T16:54:27;0.82;;;0.50;;
21661;SDS011;10992;48.170;8.596;2023-03-21T16:56:55;0.77;;;0.60;;
21661;SDS011;10992;48.170;8.596;2023-03-21T16:59:26;2.08;;;0.60;;
21661;SDS011;10992;48.170;8.596;2023-03-21T17:01:54;1.63;;;0.90;;
21661;SDS011;10992;48.170;8.596;2023-03-21T17:04:28;1.15;;;0.73;;